Aérodrome :
LOGIN :

S'inscrire | Disclaimer

   EN    FR    IT 

 










Légende :    VFR   VFR Marginal   IFR   IFR Intensif   IFR Très Intensif
Visi : 
Plafond : 
>= 8 km
>= 3000ft
5 à 8 km
1000 à 3000 ft
1500m à 5 km
500 à 1000 ft
800 à 1500m
200 à 500 ft
< 800m
< 200 ft
Symboles :   Orages  Brouillard  Fortes neiges  Fortes précipitations  Vent > 20 kt
SIGMETs :   Divers  Orages  Givrage  Turbulence  Onde Orograph.  Cendres Volcan.







- Altitude de l'aérodrome : 288 ft
- Code IATA : BZZ


EGVN - RAF Brize Norton

DERNIER METAR :
  • 222150Z 20002KT CAVOK 16/14 Q1025 NOSIG RMK BLU BLU

METARs EXPIRÉS :
  • 222120Z 24004KT CAVOK 17/14 Q1025 NOSIG
  • 222050Z 25005KT CAVOK 17/14 Q1024 NOSIG RMK BLU BLU
  • 222020Z 25006KT CAVOK 18/14 Q1025 NOSIG RMK BLU BLU
  • 221950Z 22004KT 9999 FEW040 BKN220 18/14 Q1024 NOSIG RMK BLU BLU
  • 221920Z 22003KT 9999 FEW040 BKN220 18/14 Q1024 NOSIG RMK BLU BLU

TAF TAF EGVN
Valide du 22 à 21h jusqu'au 23 à 21h UTC


221932Z 2221/2321 23005KT 9999 FEW040
BECMG 2223/2302 5000 HZ BKN008
PROB40 2300/2308 2000 BR BKN004
BECMG 2308/2311 9999 NSW SCT028
Pas de NOTAMs connus pour ce terrain.



MET'MAP, la Météo Aéronautique d'un coup d'oeil ! - Copyright ORBIFLY Décembre 2007 - Disclaimer

ORBIFLY MET'MAP TEAM :

Programmation & Développement : Alexandra Zaïnal
Conception & Développement : Baudouin d'Aumeries
Co-Programmation & Développement : Marc-Olivier Méhu
Soutien technique & logistique : Manuel Goepfert

Contact : metmap@orbifly.com




SOURCES & CREDITS :

   NOAA